Time;durP1;ratioP1;P1;durP2;ratioP2;P2;SDS_P1;SDS_P2;PMS_P1;PMS_P2;Temp;Humidity;BMP_temperature;BMP_pressure;BME280_temperature;BME280_humidity;BME280_pressure;Samples;Min_cycle;Max_cycle;Signal;HPM_P1;HPM_P2
2023/10/22 03:33:07;;;;;;;2.00;1.80;;;9.70;99.90;;;;;;4944854;29;20216;-66
2023/10/22 03:35:35;;;;;;;6.90;1.70;;;9.70;99.90;;;;;;4950166;28;20212;-66
2023/10/22 03:38:02;;;;;;;1.70;1.60;;;9.60;99.90;;;;;;4952117;28;20232;-66
2023/10/22 03:40:29;;;;;;;2.85;1.60;;;9.60;99.90;;;;;;4954354;28;20205;-66
2023/10/22 03:42:55;;;;;;;1.73;1.58;;;9.60;99.90;;;;;;4957581;28;20213;-66
2023/10/22 03:45:23;;;;;;;2.00;1.77;;;9.60;99.90;;;;;;4952889;28;20212;-66
2023/10/22 03:47:50;;;;;;;2.38;1.85;;;9.60;99.90;;;;;;4953148;28;20244;-66
2023/10/22 03:50:18;;;;;;;2.20;1.80;;;9.60;99.90;;;;;;4953486;28;20219;-66
2023/10/22 03:52:47;;;;;;;3.55;1.67;;;9.60;99.90;;;;;;4958545;28;20208;-66
2023/10/22 03:55:13;;;;;;;1.95;1.75;;;9.60;99.90;;;;;;4954648;28;20295;-67
2023/10/22 03:57:40;;;;;;;1.40;1.30;;;9.60;99.90;;;;;;4953251;28;20666;-67
2023/10/22 04:00:07;;;;;;;2.20;1.50;;;9.60;99.90;;;;;;4953279;28;20251;-67
2023/10/22 04:02:34;;;;;;;1.98;1.77;;;9.70;99.90;;;;;;4953183;28;20248;-67
2023/10/22 04:05:01;;;;;;;1.77;1.45;;;9.70;99.90;;;;;;4952336;28;20283;-67
2023/10/22 04:07:31;;;;;;;1.83;1.65;;;9.70;99.90;;;;;;4953110;28;20645;-67
2023/10/22 04:09:57;;;;;;;1.58;1.48;;;9.70;99.90;;;;;;4952308;28;20205;-67
2023/10/22 04:12:24;;;;;;;2.00;1.80;;;9.60;99.90;;;;;;4952442;28;20308;-66
2023/10/22 04:14:51;;;;;;;2.55;1.80;;;9.60;99.90;;;;;;4952808;28;20216;-66
2023/10/22 04:17:17;;;;;;;2.50;2.30;;;9.60;99.90;;;;;;4953358;28;20205;-66
2023/10/22 04:19:44;;;;;;;1.52;1.42;;;9.60;99.90;;;;;;4953677;28;20222;-67
2023/10/22 04:22:11;;;;;;;4.85;2.00;;;9.60;99.90;;;;;;4957197;28;20236;-66
2023/10/22 04:24:39;;;;;;;2.67;1.60;;;9.60;99.90;;;;;;4956670;28;20200;-66
2023/10/22 04:27:05;;;;;;;2.20;1.65;;;9.60;99.90;;;;;;4959080;28;20220;-67
2023/10/22 04:29:32;;;;;;;2.50;1.80;;;9.60;99.90;;;;;;4964527;28;20208;-66
2023/10/22 04:31:59;;;;;;;1.80;1.50;;;9.60;99.90;;;;;;4963769;28;20232;-67
2023/10/22 04:34:26;;;;;;;6.22;1.55;;;9.50;99.90;;;;;;4957443;28;20211;-67
2023/10/22 04:36:56;;;;;;;2.30;1.58;;;9.50;99.90;;;;;;4956602;28;20204;-67
2023/10/22 04:39:24;;;;;;;2.20;2.00;;;9.50;99.90;;;;;;4957384;28;20327;-66
2023/10/22 04:41:52;;;;;;;1.92;1.60;;;9.50;99.90;;;;;;4956698;28;20717;-67
2023/10/22 04:44:20;;;;;;;2.17;1.98;;;9.50;99.90;;;;;;4957141;28;20209;-66
2023/10/22 04:46:48;;;;;;;1.75;1.55;;;9.50;99.90;;;;;;4956334;28;20252;-67
2023/10/22 04:49:17;;;;;;;1.70;1.60;;;9.50;99.90;;;;;;4963994;28;20208;-66
2023/10/22 04:51:44;;;;;;;2.10;1.75;;;9.50;99.90;;;;;;4956851;28;20294;-67
2023/10/22 04:54:11;;;;;;;2.20;1.52;;;9.50;99.90;;;;;;4957095;28;20212;-67
2023/10/22 04:56:38;;;;;;;2.00;1.65;;;9.50;99.90;;;;;;4963785;28;20201;-66
2023/10/22 04:59:06;;;;;;;1.40;1.25;;;9.50;99.90;;;;;;4956904;28;20213;-66
2023/10/22 05:01:33;;;;;;;2.35;1.60;;;9.50;99.90;;;;;;4959928;28;20219;-66
2023/10/22 05:04:00;;;;;;;1.95;1.70;;;9.50;99.90;;;;;;4960189;28;20247;-66
2023/10/22 05:06:27;;;;;;;1.60;1.30;;;9.50;99.90;;;;;;4956973;28;20209;-65
2023/10/22 05:08:52;;;;;;;1.65;1.38;;;9.50;99.90;;;;;;4956563;28;20213;-65
2023/10/22 05:11:20;;;;;;;3.03;1.70;;;9.40;99.90;;;;;;4957238;28;20765;-66
2023/10/22 05:13:47;;;;;;;1.75;1.38;;;9.40;99.90;;;;;;4956604;28;20700;-65
2023/10/22 05:16:15;;;;;;;2.10;1.50;;;9.40;99.90;;;;;;4956500;28;20208;-66
2023/10/22 05:18:42;;;;;;;1.58;1.40;;;9.30;99.90;;;;;;4961362;28;20201;-66
2023/10/22 05:21:09;;;;;;;1.90;1.25;;;9.30;99.90;;;;;;4956809;28;20231;-66
2023/10/22 05:23:36;;;;;;;1.63;1.45;;;9.20;99.90;;;;;;4956524;28;20691;-66
2023/10/22 05:26:04;;;;;;;1.60;1.45;;;9.30;99.90;;;;;;4955646;28;20677;-65
2023/10/22 05:28:31;;;;;;;2.03;1.65;;;9.30;99.90;;;;;;4956693;28;20247;-66
2023/10/22 05:30:58;;;;;;;1.75;1.50;;;9.20;99.90;;;;;;4955762;28;20240;-66
2023/10/22 05:33:26;;;;;;;2.58;1.20;;;9.20;99.90;;;;;;4956340;28;20610;-66
2023/10/22 05:35:52;;;;;;;1.83;1.40;;;9.20;99.90;;;;;;4955772;28;20213;-66
2023/10/22 05:38:19;;;;;;;1.90;1.38;;;9.20;99.90;;;;;;4956774;28;20577;-66
2023/10/22 05:40:48;;;;;;;1.20;1.02;;;9.20;99.90;;;;;;4956293;28;20229;-66
2023/10/22 05:43:15;;;;;;;1.10;1.00;;;9.10;99.90;;;;;;4956777;28;20223;-66
2023/10/22 05:45:41;;;;;;;3.50;1.13;;;9.10;99.90;;;;;;4955616;28;20291;-66
2023/10/22 05:48:08;;;;;;;3.28;1.02;;;9.10;99.90;;;;;;4955562;28;20236;-66
2023/10/22 05:50:39;;;;;;;2.38;1.02;;;9.10;99.90;;;;;;4956011;28;20224;-66
2023/10/22 05:53:07;;;;;;;2.50;1.15;;;9.00;99.90;;;;;;4956099;28;20244;-66
2023/10/22 05:55:34;;;;;;;1.40;1.00;;;9.00;99.90;;;;;;4955706;28;20205;-66
2023/10/22 05:58:01;;;;;;;1.30;0.90;;;9.00;99.90;;;;;;4955993;28;20227;-66
2023/10/22 06:00:29;;;;;;;1.75;1.30;;;9.00;99.90;;;;;;4955907;28;20208;-66
2023/10/22 06:02:56;;;;;;;1.00;0.90;;;9.00;99.90;;;;;;4956124;28;20213;-66
2023/10/22 06:05:24;;;;;;;2.15;1.70;;;9.00;99.90;;;;;;4956027;28;20212;-66
2023/10/22 06:07:52;;;;;;;7.32;2.10;;;9.00;99.90;;;;;;4956014;28;20263;-66
2023/10/22 06:10:19;;;;;;;1.10;0.85;;;9.00;99.90;;;;;;4956739;28;20312;-66
2023/10/22 06:12:46;;;;;;;1.75;1.20;;;9.00;99.90;;;;;;4960750;28;20649;-66
2023/10/22 06:15:13;;;;;;;1.40;1.20;;;9.00;99.90;;;;;;4958215;28;20300;-66
2023/10/22 06:17:41;;;;;;;2.25;1.08;;;9.10;99.90;;;;;;4960011;28;20285;-66
2023/10/22 06:20:10;;;;;;;4.20;1.10;;;9.10;99.90;;;;;;4959190;28;20729;-66
2023/10/22 06:22:37;;;;;;;2.00;1.25;;;9.10;99.90;;;;;;4964608;28;20836;-66
2023/10/22 06:25:08;;;;;;;1.52;1.10;;;9.10;99.90;;;;;;4958783;28;20670;-66
2023/10/22 06:27:34;;;;;;;1.90;1.13;;;9.10;99.90;;;;;;4956521;28;20279;-66
2023/10/22 06:30:01;;;;;;;2.00;1.25;;;9.10;99.90;;;;;;4962793;28;20211;-66
2023/10/22 06:32:30;;;;;;;2.70;1.10;;;9.10;99.90;;;;;;4955646;28;20232;-65
2023/10/22 06:34:58;;;;;;;1.13;0.95;;;9.20;99.90;;;;;;4962215;28;20216;-65
2023/10/22 06:37:25;;;;;;;1.52;1.00;;;9.20;99.90;;;;;;4956714;28;20643;-66
2023/10/22 06:39:55;;;;;;;2.38;1.27;;;9.20;99.90;;;;;;4955961;28;20255;-66
2023/10/22 06:42:23;;;;;;;2.85;1.35;;;9.20;99.90;;;;;;4957903;28;20233;-66
2023/10/22 06:44:50;;;;;;;2.70;1.38;;;9.30;99.90;;;;;;4959515;28;20204;-66
2023/10/22 06:47:20;;;;;;;1.48;1.02;;;9.30;99.90;;;;;;4956635;28;20704;-66
2023/10/22 06:49:49;;;;;;;1.80;0.90;;;9.30;99.90;;;;;;4956088;28;20216;-66
2023/10/22 06:52:16;;;;;;;2.53;1.15;;;9.30;99.90;;;;;;4963316;28;20239;-66
2023/10/22 06:54:43;;;;;;;2.72;1.42;;;9.30;99.90;;;;;;4955659;28;20823;-66
2023/10/22 06:57:12;;;;;;;1.75;1.23;;;9.40;99.90;;;;;;4955962;28;20205;-66
2023/10/22 06:59:40;;;;;;;1.45;1.00;;;9.40;99.90;;;;;;4955898;28;20212;-66
2023/10/22 07:02:07;;;;;;;1.73;1.20;;;9.40;99.90;;;;;;4956004;28;20228;-66
2023/10/22 07:04:34;;;;;;;1.05;0.95;;;9.50;99.90;;;;;;4959009;28;20588;-66
2023/10/22 07:07:01;;;;;;;1.13;0.90;;;9.50;99.90;;;;;;4959114;28;20212;-66
2023/10/22 07:09:27;;;;;;;1.25;0.95;;;9.80;99.90;;;;;;4958479;28;20227;-66
2023/10/22 07:11:54;;;;;;;1.23;1.08;;;9.90;99.90;;;;;;4955812;28;20232;-66
2023/10/22 07:14:21;;;;;;;1.17;0.98;;;10.20;99.90;;;;;;4963056;28;20222;-66
2023/10/22 07:16:49;;;;;;;1.30;1.00;;;10.40;99.90;;;;;;4955548;28;20219;-66
2023/10/22 07:19:15;;;;;;;1.10;0.90;;;10.60;99.90;;;;;;4956997;28;20287;-66
2023/10/22 07:21:42;;;;;;;2.17;0.88;;;10.90;99.90;;;;;;4956390;28;20768;-66
2023/10/22 07:24:10;;;;;;;1.75;1.50;;;11.00;99.90;;;;;;4954687;28;20212;-66
2023/10/22 07:26:37;;;;;;;1.77;1.05;;;11.30;99.90;;;;;;4955227;28;20260;-66
2023/10/22 07:29:04;;;;;;;2.58;1.10;;;11.50;99.90;;;;;;4955432;28;20226;-66
2023/10/22 07:31:31;;;;;;;2.28;1.50;;;11.60;99.90;;;;;;4956512;28;20307;-66
2023/10/22 07:33:59;;;;;;;2.75;1.25;;;11.80;99.90;;;;;;4955754;28;20217;-66
2023/10/22 07:36:26;;;;;;;1.77;1.08;;;11.90;99.90;;;;;;4956311;28;20599;-66
2023/10/22 07:38:54;;;;;;;2.08;1.30;;;12.10;99.90;;;;;;4955813;28;20615;-66
2023/10/22 07:41:22;;;;;;;4.05;1.20;;;12.30;99.90;;;;;;4956503;28;20602;-65
2023/10/22 07:43:49;;;;;;;3.10;1.13;;;12.40;99.90;;;;;;4956052;28;20298;-67
2023/10/22 07:46:17;;;;;;;1.10;0.90;;;12.60;99.90;;;;;;4956572;28;20300;-65
2023/10/22 07:48:44;;;;;;;1.35;1.10;;;12.60;99.90;;;;;;4955573;28;20269;-67
2023/10/22 07:51:15;;;;;;;1.58;1.05;;;12.80;99.90;;;;;;4956682;28;20317;-66
2023/10/22 07:53:42;;;;;;;1.10;0.82;;;12.90;99.90;;;;;;4962025;28;20266;-66
2023/10/22 07:56:10;;;;;;;1.33;1.00;;;13.10;99.90;;;;;;4958356;28;20297;-66
2023/10/22 07:58:38;;;;;;;1.40;1.30;;;13.30;99.90;;;;;;4960223;28;20243;-66
2023/10/22 08:01:07;;;;;;;1.50;0.83;;;13.50;99.90;;;;;;4959911;28;20486;-66
2023/10/22 08:03:34;;;;;;;1.20;1.03;;;13.70;99.90;;;;;;4959988;28;20470;-67
2023/10/22 08:06:02;;;;;;;3.53;1.20;;;14.00;99.90;;;;;;4958931;28;20463;-67
2023/10/22 08:08:30;;;;;;;2.70;1.07;;;14.20;99.90;;;;;;4958910;28;20573;-66
2023/10/22 08:10:58;;;;;;;1.67;0.90;;;14.50;99.90;;;;;;4959262;28;21011;-66
2023/10/22 08:13:25;;;;;;;2.07;1.40;;;14.60;99.90;;;;;;4960483;28;20459;-66
2023/10/22 08:15:52;;;;;;;1.43;0.90;;;14.80;99.90;;;;;;4958788;28;20569;-66
2023/10/22 08:18:19;;;;;;;3.13;1.00;;;14.90;99.90;;;;;;4960482;28;20467;-66
2023/10/22 08:20:46;;;;;;;1.93;0.90;;;15.10;99.90;;;;;;4959382;28;20491;-66
2023/10/22 08:23:13;;;;;;;1.93;1.00;;;15.30;99.90;;;;;;4960616;28;20460;-67
2023/10/22 08:25:50;;;;;;;1.40;1.30;;;15.40;99.90;;;;;;4958414;28;20467;-66
2023/10/22 08:28:17;;;;;;;1.83;1.20;;;15.40;99.90;;;;;;4960588;28;20487;-67
2023/10/22 08:30:45;;;;;;;1.40;0.90;;;15.60;99.90;;;;;;4958990;28;20989;-66
2023/10/22 08:33:12;;;;;;;1.97;1.00;;;15.60;99.90;;;;;;4959980;28;20468;-67
2023/10/22 08:35:39;;;;;;;2.47;1.23;;;15.90;99.90;;;;;;4958588;28;20964;-66
2023/10/22 08:38:06;;;;;;;5.73;1.37;;;16.10;99.90;;;;;;4959329;28;20487;-66
2023/10/22 08:40:37;;;;;;;1.33;1.10;;;16.40;99.90;;;;;;4959649;28;20993;-67
2023/10/22 08:43:06;;;;;;;1.20;0.80;;;16.60;99.90;;;;;;4959219;28;20460;-66
2023/10/22 08:45:33;;;;;;;1.37;1.20;;;16.80;99.90;;;;;;4958858;28;20474;-66
2023/10/22 08:48:04;;;;;;;4.50;1.50;;;16.90;99.90;;;;;;4958868;28;21024;-67
2023/10/22 08:50:31;;;;;;;1.10;0.90;;;16.90;99.90;;;;;;4958589;28;20497;-66
2023/10/22 08:52:58;;;;;;;3.13;1.37;;;16.80;99.90;;;;;;4958779;28;20948;-66
2023/10/22 08:55:27;;;;;;;1.93;1.10;;;16.70;99.90;;;;;;4959681;28;20470;-67
2023/10/22 08:57:53;;;;;;;1.63;1.07;;;16.80;99.90;;;;;;4959065;28;20464;-67
2023/10/22 09:00:25;;;;;;;1.93;1.10;;;16.90;99.90;;;;;;4960218;28;20464;-66
2023/10/22 09:02:52;;;;;;;1.87;1.10;;;17.20;99.90;;;;;;4958982;28;20460;-66
2023/10/22 09:05:19;;;;;;;2.70;1.20;;;17.30;99.90;;;;;;4959677;28;20848;-66
2023/10/22 09:07:50;;;;;;;3.13;1.40;;;17.20;99.90;;;;;;4957464;28;20480;-66
2023/10/22 09:10:25;;;;;;;3.50;1.40;;;17.10;99.90;;;;;;4960471;28;20474;-67
2023/10/22 09:12:52;;;;;;;2.57;0.90;;;17.10;99.90;;;;;;4963755;28;20467;-67
2023/10/22 09:15:19;;;;;;;1.80;0.87;;;17.20;99.90;;;;;;4968591;28;20504;-66
2023/10/22 09:17:47;;;;;;;1.50;1.00;;;17.30;99.90;;;;;;4963958;28;20566;-66
2023/10/22 09:20:22;;;;;;;1.63;0.97;;;17.50;99.90;;;;;;4959910;28;20559;-65
2023/10/22 09:22:49;;;;;;;1.53;0.90;;;17.10;99.90;;;;;;4963641;28;21016;-66
2023/10/22 09:25:18;;;;;;;1.10;1.00;;;16.80;99.90;;;;;;4956746;28;20469;-65
2023/10/22 09:27:45;;;;;;;2.20;1.03;;;16.80;99.90;;;;;;4962140;28;20469;-66
2023/10/22 09:30:12;;;;;;;1.50;1.10;;;16.90;99.90;;;;;;4962844;28;20492;-66
2023/10/22 09:32:47;;;;;;;2.60;1.03;;;17.10;99.90;;;;;;4958528;28;20471;-66
2023/10/22 09:35:15;;;;;;;2.27;1.13;;;17.30;99.90;;;;;;4962983;28;20526;-66
2023/10/22 09:37:49;;;;;;;1.20;1.10;;;17.60;99.90;;;;;;4962310;28;20473;-66
2023/10/22 09:40:19;;;;;;;1.20;1.00;;;17.80;99.90;;;;;;4965013;28;20475;-68
2023/10/22 09:42:48;;;;;;;2.63;1.00;;;17.60;99.90;;;;;;4963920;28;20908;-67
2023/10/22 09:45:15;;;;;;;2.27;1.03;;;17.40;99.90;;;;;;4957270;28;20479;-67
2023/10/22 09:47:45;;;;;;;2.53;1.17;;;17.20;99.90;;;;;;4958052;28;20481;-65
2023/10/22 09:50:18;;;;;;;1.90;0.80;;;17.20;99.90;;;;;;4963397;28;20489;-68
2023/10/22 09:52:45;;;;;;;2.30;0.90;;;17.20;99.90;;;;;;4957870;28;20479;-65
2023/10/22 09:55:13;;;;;;;2.90;1.50;;;17.40;99.90;;;;;;4966080;28;20524;-66
2023/10/22 09:57:41;;;;;;;1.87;1.30;;;17.60;99.90;;;;;;4966265;28;20473;-66
2023/10/22 10:00:12;;;;;;;3.03;1.07;;;17.70;99.90;;;;;;4965638;28;20471;-65
2023/10/22 10:02:40;;;;;;;1.97;1.00;;;17.60;99.90;;;;;;4958673;28;20476;-66
2023/10/22 10:05:09;;;;;;;1.60;1.07;;;17.70;99.90;;;;;;4966481;28;20467;-65
2023/10/22 10:07:39;;;;;;;1.63;1.13;;;17.80;99.90;;;;;;4958409;28;20530;-66
2023/10/22 10:10:07;;;;;;;2.90;1.50;;;17.90;99.90;;;;;;4957696;28;20522;-66
2023/10/22 10:12:36;;;;;;;3.40;0.90;;;18.10;99.90;;;;;;4959075;28;20494;-65
2023/10/22 10:15:03;;;;;;;1.40;0.93;;;18.40;99.90;;;;;;4961843;28;20497;-66
2023/10/22 10:17:31;;;;;;;2.77;2.00;;;18.70;99.90;;;;;;4962180;28;20481;-66
2023/10/22 10:20:25;;;;;;;1.50;1.30;;;18.90;99.90;;;;;;4956657;28;20473;-66
2023/10/22 10:23:04;;;;;;;1.43;1.20;;;18.90;99.90;;;;;;4957209;28;21046;-66
2023/10/22 10:25:32;;;;;;;1.23;1.00;;;18.90;99.90;;;;;;4957041;28;20474;-65
2023/10/22 10:28:04;;;;;;;1.47;0.90;;;18.80;99.90;;;;;;4957314;28;20979;-65
2023/10/22 10:30:31;;;;;;;7.33;1.53;;;18.60;99.90;;;;;;4956624;28;20487;-66
2023/10/22 10:32:59;;;;;;;2.63;1.13;;;18.60;99.90;;;;;;4957403;28;20952;-66
2023/10/22 10:35:28;;;;;;;1.83;1.03;;;18.40;99.90;;;;;;4959163;28;20776;-65
2023/10/22 10:38:18;;;;;;;1.73;1.00;;;18.30;99.90;;;;;;4957022;28;20499;-67
2023/10/22 10:40:47;;;;;;;1.40;1.00;;;18.50;99.90;;;;;;4958156;28;20490;-67
2023/10/22 10:43:13;;;;;;;2.90;1.07;;;18.60;99.90;;;;;;4958750;28;20471;-67
2023/10/22 10:46:00;;;;;;;2.00;0.90;;;19.00;99.90;;;;;;4957700;28;20956;-66
2023/10/22 10:48:44;;;;;;;2.60;1.40;;;19.30;99.90;;;;;;4958307;28;20474;-67
2023/10/22 10:51:18;;;;;;;2.00;1.30;;;19.40;99.90;;;;;;4958076;28;20484;-67
2023/10/22 10:54:22;;;;;;;2.03;1.30;;;19.30;99.90;;;;;;4960160;28;20533;-67
2023/10/22 10:56:51;;;;;;;1.40;1.03;;;19.40;99.90;;;;;;4961818;28;20506;-67
2023/10/22 10:59:35;;;;;;;3.60;1.60;;;19.40;99.90;;;;;;4959546;28;20471;-67
2023/10/22 11:02:07;;;;;;;2.90;1.67;;;19.50;99.90;;;;;;4960911;28;20567;-67
2023/10/22 11:04:36;;;;;;;1.43;0.90;;;19.60;99.90;;;;;;4956373;28;20475;-67
2023/10/22 11:07:03;;;;;;;1.87;1.20;;;19.70;99.90;;;;;;4962098;28;20508;-67
2023/10/22 11:09:32;;;;;;;2.27;1.10;;;19.90;99.90;;;;;;4956795;28;20501;-66
2023/10/22 11:12:03;;;;;;;5.63;1.40;;;20.10;99.90;;;;;;4958377;28;20499;-67
2023/10/22 11:14:30;;;;;;;1.77;1.20;;;20.20;99.90;;;;;;4962813;28;20513;-67
2023/10/22 11:16:58;;;;;;;1.73;1.23;;;20.20;99.90;;;;;;4958544;28;20464;-66
2023/10/22 11:19:27;;;;;;;2.93;1.13;;;20.40;99.90;;;;;;4961473;28;20871;-66
2023/10/22 11:21:55;;;;;;;1.70;1.00;;;20.50;99.90;;;;;;4958614;28;20484;-67
2023/10/22 11:24:25;;;;;;;3.20;1.10;;;20.60;99.90;;;;;;4965637;28;20469;-67
2023/10/22 11:26:52;;;;;;;2.40;1.20;;;20.50;99.90;;;;;;4962481;28;20476;-67
2023/10/22 11:29:21;;;;;;;1.73;1.00;;;20.50;99.90;;;;;;4960644;28;20491;-67
2023/10/22 11:31:56;;;;;;;3.13;1.00;;;20.40;99.90;;;;;;4966403;28;20583;-67
2023/10/22 11:34:23;;;;;;;2.03;1.10;;;20.30;99.90;;;;;;4964881;28;20480;-68
2023/10/22 11:36:56;;;;;;;3.67;1.60;;;20.20;99.90;;;;;;4962385;28;20869;-67
2023/10/22 11:39:22;;;;;;;2.60;1.20;;;20.30;99.90;;;;;;4965302;28;20463;-66
2023/10/22 11:41:57;;;;;;;1.60;0.93;;;20.30;99.90;;;;;;4963096;28;20880;-66
2023/10/22 11:44:34;;;;;;;2.40;2.10;;;20.10;99.90;;;;;;4965310;28;20466;-66
2023/10/22 11:47:02;;;;;;;1.13;0.90;;;19.80;99.90;;;;;;4966204;28;20467;-67
2023/10/22 11:49:29;;;;;;;1.40;1.00;;;19.70;99.90;;;;;;4965263;28;20490;-67
2023/10/22 11:51:56;;;;;;;2.50;1.23;;;19.60;99.90;;;;;;4967323;28;20874;-66
2023/10/22 11:54:43;;;;;;;2.07;1.30;;;19.70;99.90;;;;;;4965496;28;20472;-67
2023/10/22 11:57:09;;;;;;;2.13;1.17;;;19.90;99.90;;;;;;4966441;28;20494;-67
2023/10/22 11:59:37;;;;;;;2.30;1.40;;;19.90;99.90;;;;;;4963956;28;20548;-67
2023/10/22 12:02:04;;;;;;;1.70;1.10;;;19.80;99.90;;;;;;4963354;28;20480;-67
2023/10/22 12:04:31;;;;;;;6.67;1.20;;;19.80;99.90;;;;;;4965869;28;20478;-67
2023/10/22 12:06:58;;;;;;;2.30;1.20;;;19.60;99.90;;;;;;4962767;28;20481;-67
2023/10/22 12:09:24;;;;;;;4.03;1.20;;;19.70;99.90;;;;;;4965762;28;20491;-67
2023/10/22 12:11:53;;;;;;;1.67;1.00;;;19.60;99.90;;;;;;4963484;28;20555;-66
2023/10/22 12:14:20;;;;;;;2.17;1.23;;;19.60;99.90;;;;;;4964912;28;20472;-66
2023/10/22 12:16:48;;;;;;;2.10;0.83;;;19.60;99.90;;;;;;4963848;28;20477;-67
2023/10/22 12:19:14;;;;;;;3.40;1.00;;;19.80;99.90;;;;;;4964918;28;20471;-67
2023/10/22 12:21:41;;;;;;;2.03;1.03;;;19.70;99.40;;;;;;4963437;28;20486;-66
2023/10/22 12:24:08;;;;;;;3.57;1.00;;;19.60;99.90;;;;;;4962564;28;20476;-66
2023/10/22 12:26:35;;;;;;;2.80;1.50;;;19.60;99.90;;;;;;4965046;28;20478;-65
2023/10/22 12:29:02;;;;;;;1.50;1.10;;;19.50;99.90;;;;;;4963146;28;20468;-66
2023/10/22 12:31:29;;;;;;;4.30;1.30;;;19.60;99.90;;;;;;4964547;28;20494;-66
2023/10/22 12:33:57;;;;;;;1.77;1.00;;;19.60;99.90;;;;;;4971390;28;20475;-65
2023/10/22 12:36:23;;;;;;;1.10;0.93;;;19.40;99.90;;;;;;4965392;28;20983;-66
2023/10/22 12:38:52;;;;;;;3.10;0.97;;;19.20;99.90;;;;;;4963833;28;20466;-66
2023/10/22 12:41:19;;;;;;;1.67;1.10;;;19.20;99.90;;;;;;4964980;28;20476;-66
2023/10/22 12:43:46;;;;;;;1.00;0.90;;;19.30;99.90;;;;;;4964042;28;20836;-66
2023/10/22 12:46:12;;;;;;;1.73;1.20;;;19.20;99.90;;;;;;4963989;28;20468;-66
2023/10/22 12:48:39;;;;;;;2.70;1.37;;;19.00;99.90;;;;;;4968745;28;20478;-66
2023/10/22 12:51:07;;;;;;;2.30;0.93;;;18.80;99.90;;;;;;4963393;28;20867;-66
2023/10/22 12:53:34;;;;;;;1.73;0.90;;;18.60;99.90;;;;;;4966557;28;20467;-66
2023/10/22 12:56:00;;;;;;;1.10;0.80;;;18.60;99.90;;;;;;4966533;28;20832;-65
2023/10/22 12:58:28;;;;;;;1.20;0.80;;;18.50;99.90;;;;;;4957897;28;20562;-66
2023/10/22 13:00:55;;;;;;;1.33;1.20;;;18.30;99.90;;;;;;4966454;28;20524;-66
2023/10/22 13:03:21;;;;;;;1.63;1.03;;;18.00;99.90;;;;;;4966273;28;20483;-65
2023/10/22 13:05:49;;;;;;;2.60;1.00;;;17.70;99.90;;;;;;4963749;28;20474;-65
2023/10/22 13:08:17;;;;;;;3.23;1.03;;;17.40;99.90;;;;;;4964796;28;20893;-66
2023/10/22 13:10:47;;;;;;;2.10;1.00;;;17.30;99.90;;;;;;4965042;28;20494;-66
2023/10/22 13:13:14;;;;;;;1.57;1.00;;;17.20;99.90;;;;;;4963961;28;20903;-66
2023/10/22 13:15:41;;;;;;;1.60;0.90;;;17.20;99.90;;;;;;4966900;28;20470;-66
2023/10/22 13:18:08;;;;;;;2.10;1.00;;;17.30;99.90;;;;;;4963772;28;20479;-68
2023/10/22 13:20:35;;;;;;;2.00;1.20;;;17.70;99.90;;;;;;4966648;28;20483;-66
2023/10/22 13:23:01;;;;;;;3.10;1.20;;;17.90;99.90;;;;;;4966483;28;20996;-65
2023/10/22 13:25:29;;;;;;;3.33;1.07;;;17.90;99.90;;;;;;4966102;28;20465;-66
2023/10/22 13:27:56;;;;;;;1.23;0.80;;;17.80;99.90;;;;;;4964493;28;20477;-65
2023/10/22 13:30:23;;;;;;;4.20;1.20;;;17.60;99.90;;;;;;4966274;28;20484;-66
2023/10/22 13:32:49;;;;;;;1.50;0.93;;;17.40;99.90;;;;;;4965443;28;20478;-67
2023/10/22 13:35:16;;;;;;;2.80;1.47;;;17.20;99.90;;;;;;4964441;28;20476;-68
2023/10/22 13:37:43;;;;;;;3.10;1.33;;;17.10;99.90;;;;;;4966362;28;20485;-67
2023/10/22 13:40:11;;;;;;;1.50;1.30;;;17.00;99.90;;;;;;4964404;28;20472;-67
2023/10/22 13:42:39;;;;;;;2.77;1.37;;;16.80;99.90;;;;;;4967392;28;20488;-67
2023/10/22 13:45:07;;;;;;;2.57;1.40;;;16.70;99.90;;;;;;4963792;28;20474;-67
2023/10/22 13:47:35;;;;;;;1.07;0.90;;;16.70;99.90;;;;;;4967689;28;20501;-67
2023/10/22 13:50:02;;;;;;;1.27;0.90;;;16.60;99.90;;;;;;4963543;28;20508;-67
2023/10/22 13:52:29;;;;;;;1.80;0.97;;;16.70;99.90;;;;;;4958455;28;20483;-68
2023/10/22 13:54:56;;;;;;;1.10;0.90;;;16.60;99.90;;;;;;4966782;28;20468;-67
2023/10/22 13:57:26;;;;;;;3.40;1.23;;;16.50;99.90;;;;;;4962683;28;20560;-67
2023/10/22 13:59:54;;;;;;;2.40;1.50;;;16.50;99.90;;;;;;4965416;28;20547;-67
2023/10/22 14:02:21;;;;;;;1.10;0.80;;;16.40;99.90;;;;;;4962425;28;20483;-67
2023/10/22 14:04:48;;;;;;;3.23;1.10;;;16.40;99.90;;;;;;4965093;28;20471;-66
2023/10/22 14:07:15;;;;;;;2.03;1.43;;;16.40;99.90;;;;;;4963980;28;20470;-67
2023/10/22 14:09:42;;;;;;;2.63;1.23;;;16.50;99.90;;;;;;4969463;28;20511;-68
2023/10/22 14:12:09;;;;;;;1.80;1.20;;;16.70;99.90;;;;;;4964427;28;20491;-68
2023/10/22 14:14:37;;;;;;;1.80;1.00;;;16.80;99.90;;;;;;4966422;28;20846;-68
2023/10/22 14:17:06;;;;;;;1.23;0.90;;;16.90;99.90;;;;;;4962102;28;21056;-67
2023/10/22 14:19:33;;;;;;;1.53;1.00;;;17.20;99.90;;;;;;4967101;28;20836;-68
2023/10/22 14:21:59;;;;;;;3.33;1.50;;;17.40;99.90;;;;;;4962847;28;20525;-67
2023/10/22 14:24:26;;;;;;;1.43;0.80;;;17.60;99.90;;;;;;4966801;28;20465;-68
2023/10/22 14:26:53;;;;;;;4.50;1.57;;;17.50;99.90;;;;;;4963820;28;20469;-68
2023/10/22 14:29:20;;;;;;;1.67;0.90;;;17.30;99.90;;;;;;4963931;28;20482;-67
2023/10/22 14:31:47;;;;;;;3.30;1.20;;;17.20;99.90;;;;;;4964628;28;20521;-67
2023/10/22 14:34:18;;;;;;;1.90;1.07;;;17.10;99.90;;;;;;4961599;28;20504;-67
2023/10/22 14:36:45;;;;;;;1.20;1.10;;;17.10;99.90;;;;;;4962168;28;20474;-68
2023/10/22 14:39:12;;;;;;;1.67;1.00;;;17.10;99.90;;;;;;4968178;28;20475;-67
2023/10/22 14:41:39;;;;;;;1.87;0.93;;;17.20;99.90;;;;;;4966881;28;20483;-67
2023/10/22 14:44:05;;;;;;;1.10;0.87;;;17.30;99.90;;;;;;4963792;28;20474;-67
2023/10/22 14:46:32;;;;;;;1.93;1.00;;;17.30;99.90;;;;;;4966359;28;20485;-67
2023/10/22 14:48:59;;;;;;;2.03;1.23;;;17.20;99.90;;;;;;4961905;28;20473;-67
2023/10/22 14:51:27;;;;;;;1.10;0.80;;;17.20;99.90;;;;;;4966399;28;20490;-67
2023/10/22 14:53:55;;;;;;;1.30;1.10;;;17.00;99.90;;;;;;4960429;28;20866;-66
2023/10/22 14:56:21;;;;;;;1.30;1.10;;;16.90;99.90;;;;;;4969194;28;20474;-66
2023/10/22 14:58:48;;;;;;;2.10;1.17;;;16.80;99.90;;;;;;4967092;28;20997;-67
2023/10/22 15:01:15;;;;;;;1.50;1.20;;;16.70;99.90;;;;;;4966222;28;20483;-67
2023/10/22 15:03:42;;;;;;;1.33;1.07;;;16.50;99.90;;;;;;4967129;28;20469;-67
2023/10/22 15:06:09;;;;;;;2.10;1.00;;;16.40;99.90;;;;;;4962456;28;20478;-67
2023/10/22 15:08:37;;;;;;;1.33;1.00;;;16.20;99.90;;;;;;4967160;28;20484;-66
2023/10/22 15:11:04;;;;;;;2.27;1.27;;;16.20;99.90;;;;;;4960401;28;20488;-66
2023/10/22 15:13:32;;;;;;;2.30;1.10;;;16.10;99.90;;;;;;4963177;28;20974;-66
2023/10/22 15:15:59;;;;;;;1.83;1.00;;;16.00;99.90;;;;;;4965450;28;20847;-66
2023/10/22 15:18:26;;;;;;;4.50;0.90;;;15.90;99.90;;;;;;4967211;28;20464;-67
2023/10/22 15:20:53;;;;;;;1.23;1.00;;;15.70;99.90;;;;;;4971506;28;20475;-66
2023/10/22 15:23:21;;;;;;;1.00;0.80;;;15.70;99.90;;;;;;4967713;28;20528;-66
2023/10/22 15:25:51;;;;;;;3.43;1.40;;;15.60;99.90;;;;;;4967315;28;20468;-67
2023/10/22 15:28:19;;;;;;;2.03;1.20;;;15.50;99.90;;;;;;4967584;28;20473;-66
2023/10/22 15:30:47;;;;;;;2.10;1.23;;;15.40;99.90;;;;;;4965642;28;20586;-66
2023/10/22 15:33:14;;;;;;;1.40;1.23;;;15.30;99.90;;;;;;4966818;28;20478;-65
2023/10/22 15:35:41;;;;;;;3.57;1.33;;;15.20;99.90;;;;;;4967706;28;20554;-66
2023/10/22 15:38:10;;;;;;;2.53;1.00;;;15.10;99.90;;;;;;4966389;28;20475;-70
2023/10/22 15:40:37;;;;;;;1.53;0.93;;;14.90;99.90;;;;;;4970020;28;20516;-69
2023/10/22 15:43:06;;;;;;;2.10;1.33;;;14.80;99.90;;;;;;4966483;28;20514;-65
2023/10/22 15:45:33;;;;;;;1.43;1.03;;;14.70;99.90;;;;;;4967590;28;20472;-66
2023/10/22 15:48:02;;;;;;;0.83;0.80;;;14.60;99.90;;;;;;4967031;28;20464;-67
2023/10/22 15:50:29;;;;;;;3.13;1.23;;;14.50;99.90;;;;;;4961576;28;20566;-67
2023/10/22 15:52:56;;;;;;;1.67;0.90;;;14.40;99.90;;;;;;4967488;28;20477;-66
2023/10/22 15:55:23;;;;;;;3.63;1.40;;;14.30;99.90;;;;;;4966476;28;20475;-66
2023/10/22 15:57:52;;;;;;;1.20;1.10;;;14.20;99.90;;;;;;4968622;28;20501;-66
2023/10/22 16:00:22;;;;;;;1.93;1.17;;;14.10;99.90;;;;;;4967073;28;20467;-67
2023/10/22 16:02:49;;;;;;;2.80;1.10;;;14.00;99.90;;;;;;4968134;28;20467;-67
2023/10/22 16:05:17;;;;;;;2.80;1.47;;;13.80;99.90;;;;;;4966655;28;20472;-66
2023/10/22 16:07:43;;;;;;;3.57;1.33;;;13.70;99.90;;;;;;4968847;28;20479;-67
2023/10/22 16:10:11;;;;;;;1.50;1.13;;;13.60;99.90;;;;;;4966652;28;20494;-66
2023/10/22 16:12:38;;;;;;;2.67;1.20;;;13.50;99.90;;;;;;4968856;28;20482;-65
2023/10/22 16:15:06;;;;;;;1.87;1.27;;;13.40;99.90;;;;;;4966419;28;20909;-66
2023/10/22 16:17:39;;;;;;;1.37;1.13;;;13.30;99.90;;;;;;4971682;28;20491;-65
2023/10/22 16:20:07;;;;;;;1.80;1.10;;;13.20;99.90;;;;;;4971334;28;20462;-66
2023/10/22 16:22:34;;;;;;;1.53;1.17;;;13.10;99.90;;;;;;4973194;28;20477;-66
2023/10/22 16:25:01;;;;;;;2.07;1.17;;;13.00;99.90;;;;;;4969189;28;20463;-65
2023/10/22 16:27:28;;;;;;;1.13;1.00;;;12.90;99.90;;;;;;4970429;28;20466;-66